Time;durP1;ratioP1;P1;durP2;ratioP2;P2;SDS_P1;SDS_P2;PMS_P1;PMS_P2;Temp;Humidity;BMP_temperature;BMP_pressure;BME280_temperature;BME280_humidity;BME280_pressure;Samples;Min_cycle;Max_cycle;Signal;HPM_P1;HPM_P2
2023/12/12 00:01:54;;;;;;;5.78;1.98;;;-4.30;99.90;;;;;;4958293;28;20090;-79
2023/12/12 00:04:20;;;;;;;6.00;1.73;;;-4.30;99.70;;;;;;4959282;28;20082;-79
2023/12/12 00:06:45;;;;;;;4.43;2.28;;;-4.40;99.60;;;;;;4957500;28;20073;-77
2023/12/12 00:09:11;;;;;;;5.18;2.45;;;-4.40;99.80;;;;;;4960149;28;20094;-77
2023/12/12 00:11:37;;;;;;;2.63;1.90;;;-4.40;99.90;;;;;;4958765;28;20098;-78
2023/12/12 00:14:03;;;;;;;4.00;1.80;;;-4.40;99.90;;;;;;4956500;29;20051;-79
2023/12/12 00:16:29;;;;;;;6.32;2.60;;;-4.40;99.90;;;;;;4939168;29;20106;-76
2023/12/12 00:18:55;;;;;;;4.88;2.67;;;-4.40;99.90;;;;;;4958853;28;20027;-77
2023/12/12 00:21:21;;;;;;;6.32;2.10;;;-4.40;99.90;;;;;;4937045;28;20111;-77
2023/12/12 00:23:46;;;;;;;3.00;2.72;;;-4.40;99.90;;;;;;4949358;28;20027;-77
2023/12/12 00:26:13;;;;;;;2.05;1.70;;;-4.40;99.90;;;;;;4951834;28;20491;-78
2023/12/12 00:28:40;;;;;;;3.65;2.28;;;-4.40;99.90;;;;;;4955270;28;20038;-78
2023/12/12 00:31:06;;;;;;;3.53;2.10;;;-4.50;99.90;;;;;;4956981;28;20098;-77
2023/12/12 00:33:31;;;;;;;10.15;2.38;;;-4.50;99.90;;;;;;4957437;28;20018;-79
2023/12/12 00:36:02;;;;;;;3.47;1.80;;;-4.50;99.90;;;;;;4940426;29;20034;-77
2023/12/12 00:38:29;;;;;;;2.95;1.58;;;-4.50;99.90;;;;;;4953318;28;20476;-78
2023/12/12 00:40:55;;;;;;;5.68;3.25;;;-4.50;99.90;;;;;;4940996;29;20035;-79
2023/12/12 00:43:23;;;;;;;5.35;1.77;;;-4.60;99.90;;;;;;4957006;28;20020;-78
2023/12/12 00:45:49;;;;;;;;;;;-4.60;99.90;;;;;;4958708;28;20385;-79
2023/12/12 00:48:17;;;;;;;4.57;1.67;;;-4.60;99.90;;;;;;4955442;28;19911;-79
2023/12/12 00:50:43;;;;;;;2.92;1.90;;;-4.70;99.90;;;;;;4955953;29;20030;-80
2023/12/12 00:53:09;;;;;;;1.55;1.15;;;-4.70;99.90;;;;;;4959606;28;20026;-79
2023/12/12 00:55:35;;;;;;;5.57;1.98;;;-4.70;99.90;;;;;;4961465;28;20388;-79
2023/12/12 00:58:01;;;;;;;4.43;2.05;;;-4.80;99.90;;;;;;4956129;28;20023;-80
2023/12/12 01:00:27;;;;;;;2.72;1.50;;;-4.80;99.90;;;;;;4966378;28;20027;-81
2023/12/12 01:02:52;;;;;;;4.15;2.45;;;-4.80;99.90;;;;;;4931870;28;20135;-80
2023/12/12 01:05:18;;;;;;;4.10;2.67;;;-4.80;99.90;;;;;;4964272;28;20018;-79
2023/12/12 01:07:44;;;;;;;2.95;2.33;;;-4.80;99.90;;;;;;4969000;28;20024;-80
2023/12/12 01:10:10;;;;;;;2.67;1.35;;;-4.80;99.90;;;;;;4962680;28;20129;-78
2023/12/12 01:12:36;;;;;;;4.57;1.60;;;-4.90;99.90;;;;;;4970899;28;20086;-78
2023/12/12 01:15:03;;;;;;;2.97;2.07;;;-4.90;99.90;;;;;;4960397;28;20158;-79
2023/12/12 01:17:29;;;;;;;6.80;1.95;;;-4.90;99.90;;;;;;4927846;29;20034;-79
2023/12/12 01:19:55;;;;;;;3.25;2.50;;;-4.90;99.90;;;;;;4960030;28;20058;-79
2023/12/12 01:22:21;;;;;;;3.88;2.28;;;-5.00;99.90;;;;;;4965896;28;20522;-79
2023/12/12 01:24:47;;;;;;;4.38;1.98;;;-5.00;99.90;;;;;;4968803;28;20453;-78
2023/12/12 01:27:13;;;;;;;2.90;1.45;;;-5.00;99.90;;;;;;4938093;29;20023;-78
2023/12/12 01:29:39;;;;;;;3.25;1.63;;;-5.00;99.90;;;;;;4955296;29;20045;-79
2023/12/12 01:32:05;;;;;;;5.50;2.33;;;-5.00;99.90;;;;;;4960207;28;20023;-78
2023/12/12 01:34:31;;;;;;;4.40;2.10;;;-5.00;99.90;;;;;;4975356;28;20106;-81
2023/12/12 01:36:57;;;;;;;3.20;1.63;;;-5.00;99.90;;;;;;4961490;28;20485;-78
2023/12/12 01:39:22;;;;;;;5.57;1.95;;;-5.00;99.90;;;;;;4943789;29;20095;-79
2023/12/12 01:41:49;;;;;;;4.82;2.65;;;-4.90;99.90;;;;;;4941466;29;20023;-78
2023/12/12 01:44:16;;;;;;;5.03;2.33;;;-4.90;99.90;;;;;;4955210;29;20019;-78
2023/12/12 01:46:44;;;;;;;4.10;1.90;;;-4.90;99.90;;;;;;4956386;28;20523;-78
2023/12/12 01:49:11;;;;;;;5.97;1.70;;;-4.90;99.90;;;;;;4954903;29;20539;-78
2023/12/12 01:51:37;;;;;;;6.10;2.17;;;-4.90;99.90;;;;;;4959993;28;20023;-79
2023/12/12 01:54:07;;;;;;;5.65;2.25;;;-4.90;99.90;;;;;;4961092;28;20102;-78
2023/12/12 01:56:33;;;;;;;2.95;1.77;;;-4.90;99.90;;;;;;4959895;28;20545;-79
2023/12/12 01:59:00;;;;;;;2.30;1.73;;;-5.00;99.90;;;;;;4963737;28;20061;-78
2023/12/12 02:01:27;;;;;;;3.00;1.13;;;-4.90;99.90;;;;;;4959444;28;20043;-79
2023/12/12 02:03:54;;;;;;;5.82;2.05;;;-4.90;99.90;;;;;;4965478;28;20051;-78
2023/12/12 02:06:22;;;;;;;6.57;2.80;;;-5.00;99.90;;;;;;4943074;29;20122;-78
2023/12/12 02:08:54;;;;;;;3.92;1.88;;;-4.90;99.90;;;;;;4959690;28;20085;-77
2023/12/12 02:11:21;;;;;;;3.75;2.22;;;-4.90;99.90;;;;;;4954735;28;20441;-78
2023/12/12 02:13:48;;;;;;;5.28;2.13;;;-4.90;99.90;;;;;;4966749;28;20392;-78
2023/12/12 02:16:14;;;;;;;3.60;1.63;;;-4.90;99.90;;;;;;4963774;28;20128;-77
2023/12/12 02:18:40;;;;;;;8.32;2.53;;;-4.90;99.90;;;;;;4949317;28;20035;-76
2023/12/12 02:21:06;;;;;;;2.67;2.08;;;-4.90;99.90;;;;;;4943727;29;20058;-79
2023/12/12 02:23:55;;;;;;;4.40;1.77;;;-4.90;99.90;;;;;;4949976;28;20029;-79
2023/12/12 02:26:22;;;;;;;4.65;2.42;;;-4.90;99.90;;;;;;4949336;28;20055;-78
2023/12/12 02:28:48;;;;;;;5.33;2.50;;;-5.00;99.90;;;;;;4954484;28;20031;-78
2023/12/12 02:31:14;;;;;;;6.13;3.67;;;-5.00;99.90;;;;;;4950986;28;20027;-78
2023/12/12 02:33:40;;;;;;;4.47;3.15;;;-5.00;99.90;;;;;;4955594;28;20031;-79
2023/12/12 02:36:06;;;;;;;2.92;1.67;;;-5.00;99.90;;;;;;4955949;28;20508;-78
2023/12/12 02:38:32;;;;;;;3.88;2.92;;;-5.00;99.90;;;;;;4953846;28;20381;-79
2023/12/12 02:40:58;;;;;;;7.78;2.10;;;-5.00;99.90;;;;;;4956954;28;20034;-78
2023/12/12 02:43:24;;;;;;;6.70;2.65;;;-5.00;99.90;;;;;;4961640;28;20098;-77
2023/12/12 02:45:49;;;;;;;4.47;2.38;;;-5.00;99.90;;;;;;4958079;28;20086;-79
2023/12/12 02:48:16;;;;;;;3.80;2.35;;;-5.10;99.90;;;;;;4955029;28;20054;-79
2023/12/12 02:50:42;;;;;;;3.33;2.20;;;-5.10;99.90;;;;;;4959901;28;20034;-79
2023/12/12 02:53:08;;;;;;;3.38;1.92;;;-5.10;99.90;;;;;;4958830;28;20751;-78
2023/12/12 02:55:33;;;;;;;6.68;2.70;;;-5.20;99.90;;;;;;4945778;28;20042;-79
2023/12/12 02:57:59;;;;;;;9.18;2.58;;;-5.20;99.90;;;;;;4959177;28;20043;-76
2023/12/12 03:00:25;;;;;;;5.38;3.22;;;-5.20;99.90;;;;;;4958390;28;20062;-78
2023/12/12 03:02:51;;;;;;;6.35;2.95;;;-5.20;99.90;;;;;;4958601;28;20047;-78
2023/12/12 03:05:17;;;;;;;5.97;2.55;;;-5.20;99.90;;;;;;4958281;28;20026;-79
2023/12/12 03:07:42;;;;;;;7.10;2.30;;;-5.20;99.90;;;;;;4962036;28;20385;-77
2023/12/12 03:10:08;;;;;;;6.90;2.15;;;-5.20;99.90;;;;;;4962636;28;20049;-78
2023/12/12 03:12:34;;;;;;;5.07;3.20;;;-5.20;99.90;;;;;;4971589;28;20100;-78
2023/12/12 03:15:00;;;;;;;5.95;3.13;;;-5.20;99.90;;;;;;4969392;28;20408;-77
2023/12/12 03:17:26;;;;;;;4.38;2.83;;;-5.20;99.90;;;;;;4955952;28;20076;-79
2023/12/12 03:19:52;;;;;;;7.03;4.03;;;-5.20;99.90;;;;;;4959711;28;20069;-79
2023/12/12 03:22:18;;;;;;;8.45;2.80;;;-5.20;99.90;;;;;;4965798;28;20077;-78
2023/12/12 03:24:44;;;;;;;5.75;2.97;;;-5.10;99.90;;;;;;4952589;29;20034;-78
2023/12/12 03:27:10;;;;;;;7.22;2.65;;;-5.10;99.90;;;;;;4959953;28;20042;-77
2023/12/12 03:29:35;;;;;;;5.28;3.10;;;-5.00;99.90;;;;;;4970706;28;20531;-78
2023/12/12 03:32:02;;;;;;;4.93;2.88;;;-5.00;99.90;;;;;;4962766;28;20102;-79
2023/12/12 03:34:27;;;;;;;8.07;2.90;;;-5.00;99.90;;;;;;4970894;28;20454;-79
2023/12/12 03:36:53;;;;;;;4.03;2.67;;;-5.00;99.90;;;;;;4964186;28;20102;-79
2023/12/12 03:39:19;;;;;;;10.30;3.40;;;-5.00;99.90;;;;;;4959859;28;20023;-77
2023/12/12 03:41:45;;;;;;;2.92;2.63;;;-5.00;99.90;;;;;;4962348;28;20034;-77
2023/12/12 03:44:11;;;;;;;5.20;3.38;;;-4.90;99.90;;;;;;4949596;28;20116;-80
2023/12/12 03:46:43;;;;;;;9.18;3.05;;;-4.90;99.90;;;;;;4961961;28;20110;-80
2023/12/12 03:49:09;;;;;;;9.73;4.32;;;-4.90;99.90;;;;;;4960444;28;20031;-80
2023/12/12 03:51:34;;;;;;;6.15;3.15;;;-4.90;99.90;;;;;;4961599;28;20035;-79
2023/12/12 03:54:02;;;;;;;9.30;3.25;;;-4.90;99.90;;;;;;4961395;28;20413;-79
2023/12/12 03:56:27;;;;;;;6.78;4.32;;;-4.90;99.90;;;;;;4961070;28;20024;-78
2023/12/12 03:58:53;;;;;;;8.00;4.22;;;-4.90;99.90;;;;;;4961241;28;20029;-79
2023/12/12 04:01:19;;;;;;;7.28;3.92;;;-4.90;99.90;;;;;;4962480;28;20042;-78
2023/12/12 04:03:45;;;;;;;11.55;4.97;;;-4.90;99.90;;;;;;4963163;28;20051;-78
2023/12/12 04:06:11;;;;;;;8.75;4.10;;;-4.80;99.90;;;;;;4962592;28;20456;-79
2023/12/12 04:08:37;;;;;;;11.35;4.75;;;-4.80;99.90;;;;;;4962079;28;20066;-78
2023/12/12 04:11:03;;;;;;;8.05;3.83;;;-4.80;99.90;;;;;;4962505;28;20023;-79
2023/12/12 04:13:29;;;;;;;5.43;4.05;;;-4.80;99.90;;;;;;4962020;28;20503;-77
2023/12/12 04:15:55;;;;;;;9.45;5.20;;;-4.80;99.90;;;;;;4963720;28;20053;-79
2023/12/12 04:18:21;;;;;;;11.73;5.50;;;-4.80;99.90;;;;;;4960555;28;20011;-79
2023/12/12 04:20:47;;;;;;;9.32;4.30;;;-4.70;99.90;;;;;;4966452;28;20034;-79
2023/12/12 04:23:12;;;;;;;9.82;4.85;;;-4.80;99.90;;;;;;4962370;28;20034;-78
2023/12/12 04:25:38;;;;;;;7.28;5.47;;;-4.70;99.90;;;;;;4961047;28;20023;-79
2023/12/12 04:28:04;;;;;;;8.63;4.40;;;-4.70;99.90;;;;;;4957767;29;20759;-79
2023/12/12 04:30:30;;;;;;;8.70;4.95;;;-4.70;99.90;;;;;;4961576;28;20711;-78
2023/12/12 04:32:56;;;;;;;7.38;4.88;;;-4.70;99.90;;;;;;4957796;28;20023;-80
2023/12/12 04:35:22;;;;;;;8.07;4.80;;;-4.60;99.90;;;;;;4940478;29;20358;-79
2023/12/12 04:37:48;;;;;;;11.30;4.20;;;-4.60;99.90;;;;;;4958077;28;20027;-77
2023/12/12 04:40:14;;;;;;;9.70;4.30;;;-4.60;99.90;;;;;;4942795;28;20027;-80
2023/12/12 04:42:39;;;;;;;8.55;3.60;;;-4.60;99.90;;;;;;4958798;28;20138;-80
2023/12/12 04:45:06;;;;;;;6.70;4.13;;;-4.60;99.90;;;;;;4941286;29;20034;-79
2023/12/12 04:47:32;;;;;;;4.38;3.40;;;-4.60;99.90;;;;;;4960237;28;20023;-79
2023/12/12 04:49:57;;;;;;;7.32;3.35;;;-4.60;99.90;;;;;;4940451;29;20045;-80
2023/12/12 04:52:23;;;;;;;5.45;3.42;;;-4.60;99.90;;;;;;4969563;28;20051;-79
2023/12/12 04:54:49;;;;;;;7.38;3.72;;;-4.50;99.90;;;;;;4972081;28;20099;-80
2023/12/12 04:57:15;;;;;;;8.57;4.00;;;-4.50;99.90;;;;;;4969670;28;20031;-79
2023/12/12 04:59:41;;;;;;;6.35;2.95;;;-4.50;99.90;;;;;;4956030;28;20106;-79
2023/12/12 05:02:07;;;;;;;13.40;4.25;;;-4.50;99.90;;;;;;4941552;28;20100;-78
2023/12/12 05:04:33;;;;;;;5.97;3.28;;;-4.50;99.90;;;;;;4939751;29;20064;-80
2023/12/12 05:06:59;;;;;;;5.53;3.10;;;-4.50;99.90;;;;;;4957737;28;20023;-80
2023/12/12 05:09:25;;;;;;;6.90;3.20;;;-4.50;99.90;;;;;;4958900;28;20500;-78
2023/12/12 05:11:51;;;;;;;6.32;2.58;;;-4.50;99.90;;;;;;4964293;28;20034;-82
2023/12/12 05:14:16;;;;;;;8.35;3.58;;;-4.40;99.90;;;;;;4960155;28;20029;-80
2023/12/12 05:16:42;;;;;;;6.57;3.03;;;-4.40;99.90;;;;;;4958223;28;20019;-80
2023/12/12 05:19:08;;;;;;;4.80;2.95;;;-4.40;99.90;;;;;;4971221;28;20105;-81
2023/12/12 05:21:34;;;;;;;10.63;3.95;;;-4.40;99.90;;;;;;4955550;28;20432;-80
2023/12/12 05:24:00;;;;;;;7.00;5.03;;;-4.40;99.90;;;;;;4967452;28;20095;-80
2023/12/12 05:26:27;;;;;;;9.98;4.15;;;-4.40;99.90;;;;;;4958953;28;20083;-80
2023/12/12 05:28:53;;;;;;;5.68;3.25;;;-4.40;99.90;;;;;;4956054;28;20031;-79
2023/12/12 05:31:19;;;;;;;6.03;3.23;;;-4.40;99.90;;;;;;4955395;28;20497;-81
2023/12/12 05:33:46;;;;;;;7.03;3.38;;;-4.40;99.90;;;;;;4956610;28;20098;-79
2023/12/12 05:36:12;;;;;;;7.63;3.17;;;-4.40;99.90;;;;;;4960375;28;20061;-80
2023/12/12 05:38:38;;;;;;;9.25;3.72;;;-4.40;99.90;;;;;;4954825;28;20442;-80
2023/12/12 05:41:04;;;;;;;6.68;3.72;;;-4.40;99.90;;;;;;4960779;28;20512;-79
2023/12/12 05:43:30;;;;;;;7.00;3.90;;;-4.40;99.90;;;;;;4961014;28;20023;-80
2023/12/12 05:45:55;;;;;;;12.57;4.28;;;-4.30;99.90;;;;;;4960405;28;20031;-79
2023/12/12 05:48:21;;;;;;;6.32;3.47;;;-4.40;99.90;;;;;;4967582;28;20495;-79
2023/12/12 05:50:48;;;;;;;6.25;3.25;;;-4.30;99.90;;;;;;4963609;28;20042;-80
2023/12/12 05:53:14;;;;;;;6.82;3.92;;;-4.40;99.90;;;;;;4956612;28;20078;-79
2023/12/12 05:55:40;;;;;;;9.60;4.03;;;-4.40;99.90;;;;;;4959979;28;20061;-80
2023/12/12 05:58:06;;;;;;;5.93;3.70;;;-4.40;99.90;;;;;;4959594;28;20027;-81
2023/12/12 06:00:32;;;;;;;6.88;3.17;;;-4.40;99.90;;;;;;4960293;28;20026;-81
2023/12/12 06:02:58;;;;;;;6.05;3.75;;;-4.40;99.90;;;;;;4957862;28;20050;-80
2023/12/12 06:05:24;;;;;;;4.70;2.83;;;-4.40;99.90;;;;;;4960945;28;20031;-83
2023/12/12 06:07:50;;;;;;;7.97;4.55;;;-4.40;99.90;;;;;;4942608;29;20429;-81
2023/12/12 06:10:18;;;;;;;6.95;3.10;;;-4.40;99.90;;;;;;4956048;28;20119;-80
2023/12/12 06:12:44;;;;;;;4.68;3.00;;;-4.40;99.90;;;;;;4957387;28;20377;-81
2023/12/12 06:15:10;;;;;;;5.50;3.22;;;-4.40;99.90;;;;;;4966051;28;20115;-79
2023/12/12 06:17:36;;;;;;;11.05;3.20;;;-4.40;99.90;;;;;;4962145;28;20027;-79
2023/12/12 06:20:03;;;;;;;8.30;3.45;;;-4.40;99.90;;;;;;4965302;28;20023;-80
2023/12/12 06:22:29;;;;;;;10.50;3.85;;;-4.40;99.90;;;;;;4936784;29;20031;-80
2023/12/12 06:24:55;;;;;;;8.77;3.67;;;-4.30;99.90;;;;;;4956223;28;20026;-79
2023/12/12 06:27:21;;;;;;;7.72;4.35;;;-4.40;99.90;;;;;;4954215;29;20031;-83
2023/12/12 06:29:49;;;;;;;10.32;3.92;;;-4.40;99.90;;;;;;4937657;28;20051;-83
2023/12/12 06:32:15;;;;;;;4.97;3.83;;;-4.40;99.90;;;;;;4955865;28;20027;-81
2023/12/12 06:34:43;;;;;;;5.55;4.15;;;-4.40;99.90;;;;;;4954306;29;20477;-82
2023/12/12 06:37:10;;;;;;;10.77;3.60;;;-4.40;99.90;;;;;;4954984;28;20023;-81
2023/12/12 06:39:36;;;;;;;9.55;3.05;;;-4.40;99.90;;;;;;4954133;28;20055;-81
2023/12/12 06:42:03;;;;;;;8.82;3.92;;;-4.40;99.90;;;;;;4953443;28;20459;-81
2023/12/12 06:44:29;;;;;;;;;;;-4.40;99.90;;;;;;4938415;29;20024;-81
2023/12/12 06:46:55;;;;;;;13.07;3.75;;;-4.40;99.90;;;;;;4954617;28;19917;-82
2023/12/12 06:49:21;;;;;;;6.60;3.88;;;-4.40;99.90;;;;;;4962094;28;20589;-83
2023/12/12 06:51:47;;;;;;;6.75;3.72;;;-4.40;99.90;;;;;;4960149;28;20028;-82
2023/12/12 06:54:13;;;;;;;11.30;4.50;;;-4.30;99.90;;;;;;4949932;28;20027;-82
2023/12/12 06:56:40;;;;;;;11.25;4.35;;;-4.40;99.90;;;;;;4955563;28;20446;-81
2023/12/12 06:59:06;;;;;;;6.43;3.83;;;-4.30;99.90;;;;;;4955241;28;20043;-79
2023/12/12 07:01:32;;;;;;;8.40;4.28;;;-4.30;99.90;;;;;;4954713;29;20046;-82
2023/12/12 07:03:57;;;;;;;10.52;7.65;;;-4.30;99.90;;;;;;4956434;28;20121;-82
2023/12/12 07:06:23;;;;;;;13.98;5.05;;;-4.30;99.90;;;;;;4953881;29;20476;-80
2023/12/12 07:08:49;;;;;;;5.53;3.50;;;-4.30;99.90;;;;;;4953923;28;20671;-80
2023/12/12 07:11:16;;;;;;;6.80;3.65;;;-4.20;99.90;;;;;;4963929;28;20090;-85
2023/12/12 07:13:42;;;;;;;6.65;4.10;;;-4.20;99.90;;;;;;4937374;29;20556;-81
2023/12/12 07:16:11;;;;;;;9.52;4.97;;;-4.20;99.90;;;;;;4963314;28;20102;-80
2023/12/12 07:18:38;;;;;;;5.85;3.83;;;-4.10;99.90;;;;;;4936438;29;20030;-81
2023/12/12 07:21:05;;;;;;;13.35;4.70;;;-4.10;99.90;;;;;;4953595;28;20019;-80
2023/12/12 07:23:31;;;;;;;10.05;4.75;;;-4.10;99.90;;;;;;4953686;28;20024;-82
2023/12/12 07:25:58;;;;;;;6.18;3.67;;;-4.10;99.90;;;;;;4953742;28;20020;-82
2023/12/12 07:28:24;;;;;;;10.18;5.22;;;-4.10;99.90;;;;;;4955685;28;20385;-82
2023/12/12 07:30:50;;;;;;;10.27;5.72;;;-4.10;99.90;;;;;;4965305;28;20048;-82
2023/12/12 07:33:16;;;;;;;5.80;4.15;;;-4.10;99.90;;;;;;4953687;28;20481;-79
2023/12/12 07:35:42;;;;;;;9.35;4.25;;;-4.10;99.90;;;;;;4966656;28;20031;-83
2023/12/12 07:38:07;;;;;;;10.32;4.90;;;-4.10;99.90;;;;;;4962204;28;20492;-81
2023/12/12 07:40:33;;;;;;;5.80;3.53;;;-4.10;99.90;;;;;;4953703;28;20024;-80
2023/12/12 07:42:59;;;;;;;12.68;4.68;;;-4.10;99.90;;;;;;4944376;29;20516;-83
2023/12/12 07:45:25;;;;;;;11.00;3.70;;;-4.00;99.90;;;;;;4954068;28;20023;-80
2023/12/12 07:47:51;;;;;;;8.10;3.97;;;-4.00;99.90;;;;;;4953871;28;20118;-80
2023/12/12 07:50:17;;;;;;;6.20;3.28;;;-4.00;99.90;;;;;;4958182;29;20032;-80
2023/12/12 07:53:04;;;;;;;8.75;5.10;;;-4.00;99.90;;;;;;4956942;28;20031;-81
2023/12/12 07:55:31;;;;;;;;;;;-4.00;99.90;;;;;;4936092;29;20035;-81
2023/12/12 07:57:57;;;;;;;7.18;3.85;;;-4.00;99.90;;;;;;4940261;29;19914;-80
2023/12/12 08:00:23;;;;;;;6.88;3.67;;;-4.00;99.90;;;;;;4952807;29;20369;-82
2023/12/12 08:02:49;;;;;;;12.07;5.97;;;-4.00;99.90;;;;;;4957756;29;20121;-83
2023/12/12 08:05:14;;;;;;;6.47;3.97;;;-4.00;99.90;;;;;;4945350;29;20061;-81
2023/12/12 08:07:40;;;;;;;9.13;4.15;;;-4.00;99.90;;;;;;4950656;29;20045;-82
2023/12/12 08:10:07;;;;;;;7.07;3.90;;;-3.90;99.90;;;;;;4938529;29;20085;-82
2023/12/12 08:12:32;;;;;;;8.93;4.53;;;-3.90;99.90;;;;;;4956500;29;20031;-82
2023/12/12 08:15:03;;;;;;;8.43;4.30;;;-3.90;99.90;;;;;;4958435;28;20027;-80
2023/12/12 08:17:29;;;;;;;7.50;3.10;;;-3.90;99.90;;;;;;4957875;28;20102;-81
2023/12/12 08:19:55;;;;;;;10.23;3.72;;;-3.80;99.90;;;;;;4958924;28;20034;-81
2023/12/12 08:22:21;;;;;;;7.75;4.32;;;-3.80;99.90;;;;;;4960615;28;20031;-82
2023/12/12 08:24:50;;;;;;;7.05;3.67;;;-3.90;99.90;;;;;;4941985;28;20066;-81
2023/12/12 08:27:17;;;;;;;7.72;3.28;;;-3.80;99.90;;;;;;4964999;29;20056;-81
2023/12/12 08:29:45;;;;;;;7.40;3.88;;;-3.80;99.90;;;;;;4974404;29;20035;-80
2023/12/12 08:32:11;;;;;;;7.03;4.35;;;-3.90;99.90;;;;;;4957912;29;20074;-82
2023/12/12 08:34:37;;;;;;;6.00;2.83;;;-3.90;99.90;;;;;;4948608;29;20038;-79
2023/12/12 08:37:03;;;;;;;8.40;4.10;;;-3.90;99.90;;;;;;4939371;28;20020;-82
2023/12/12 08:39:31;;;;;;;6.90;3.58;;;-3.80;99.90;;;;;;4939062;29;20034;-80
2023/12/12 08:41:57;;;;;;;;;;;-3.80;99.90;;;;;;4956914;29;20485;-81
2023/12/12 08:44:23;;;;;;;6.90;3.83;;;-3.80;99.90;;;;;;4939278;29;19913;-81
2023/12/12 08:46:50;;;;;;;8.32;4.10;;;-3.80;99.90;;;;;;4964512;28;20033;-82
2023/12/12 08:49:18;;;;;;;7.72;3.22;;;-3.90;99.90;;;;;;4965238;28;20022;-79
2023/12/12 08:51:44;;;;;;;7.07;3.80;;;-3.90;99.90;;;;;;4970920;28;20049;-81
2023/12/12 08:54:10;;;;;;;6.95;4.07;;;-3.80;99.90;;;;;;4969901;28;20393;-81
2023/12/12 08:56:40;;;;;;;6.10;3.30;;;-3.80;99.90;;;;;;4956509;29;20031;-81
2023/12/12 08:59:06;;;;;;;5.25;3.15;;;-3.80;99.90;;;;;;4969325;28;20436;-78
2023/12/12 09:01:32;;;;;;;8.75;3.35;;;-3.80;99.90;;;;;;4955990;29;20200;-80
2023/12/12 09:04:00;;;;;;;6.72;2.97;;;-3.70;99.90;;;;;;4965365;28;20460;-81
2023/12/12 09:06:25;;;;;;;9.25;4.28;;;-3.70;99.90;;;;;;4955760;28;20027;-83
2023/12/12 09:08:51;;;;;;;8.30;4.07;;;-3.80;99.90;;;;;;4955775;28;20519;-81
2023/12/12 09:11:17;;;;;;;11.35;4.43;;;-3.70;99.90;;;;;;4955731;28;20436;-84
2023/12/12 09:13:43;;;;;;;5.30;2.88;;;-3.80;99.90;;;;;;4953850;29;20038;-80
2023/12/12 09:16:09;;;;;;;10.05;4.50;;;-3.70;99.90;;;;;;4935464;29;20401;-82
2023/12/12 09:18:35;;;;;;;8.75;3.42;;;-3.60;99.90;;;;;;4938429;29;20031;-81
2023/12/12 09:21:01;;;;;;;10.93;3.58;;;-3.60;99.90;;;;;;4941509;29;20034;-83
2023/12/12 09:23:28;;;;;;;7.13;3.97;;;-3.60;99.90;;;;;;4958663;28;20479;-81
2023/12/12 09:25:55;;;;;;;9.35;4.90;;;-3.50;99.90;;;;;;4932201;29;20109;-81
2023/12/12 09:28:22;;;;;;;6.28;4.22;;;-3.50;99.90;;;;;;4955405;29;20031;-83
2023/12/12 09:30:47;;;;;;;8.95;4.25;;;-3.50;99.90;;;;;;4934094;29;20122;-82
2023/12/12 09:33:13;;;;;;;5.35;3.28;;;-3.40;99.90;;;;;;4949542;28;20106;-82
2023/12/12 09:35:39;;;;;;;6.25;3.47;;;-3.40;99.90;;;;;;4954993;28;20035;-81
2023/12/12 09:38:05;;;;;;;11.48;4.53;;;-3.30;99.90;;;;;;4955904;29;20086;-84
2023/12/12 09:40:34;;;;;;;10.77;4.18;;;-3.30;99.90;;;;;;4955492;29;20035;-82
2023/12/12 09:43:03;;;;;;;6.43;3.03;;;-3.30;99.90;;;;;;4941705;29;20070;-82
2023/12/12 09:45:30;;;;;;;5.78;3.08;;;-3.30;99.90;;;;;;4954590;28;20015;-82
2023/12/12 09:47:56;;;;;;;8.98;3.50;;;-3.20;99.90;;;;;;4960920;28;20027;-81
2023/12/12 09:50:22;;;;;;;9.38;3.72;;;-3.20;99.90;;;;;;4964910;28;20125;-83
2023/12/12 09:52:49;;;;;;;7.55;3.22;;;-3.20;99.90;;;;;;4954954;29;20130;-84
2023/12/12 09:55:22;;;;;;;10.20;4.25;;;-3.20;99.90;;;;;;4954975;28;20112;-82
2023/12/12 09:57:48;;;;;;;9.40;4.35;;;-3.10;99.90;;;;;;4946651;28;20028;-81
2023/12/12 10:00:14;;;;;;;8.63;3.08;;;-3.10;99.90;;;;;;4954728;28;20393;-82
2023/12/12 10:02:40;;;;;;;10.02;3.05;;;-3.10;99.90;;;;;;4962702;28;20051;-79
2023/12/12 10:05:10;;;;;;;6.63;2.95;;;-3.10;99.90;;;;;;4946064;29;20161;-81
2023/12/12 10:07:36;;;;;;;14.13;4.13;;;-3.10;99.90;;;;;;4936859;29;20373;-81
2023/12/12 10:10:07;;;;;;;7.50;3.90;;;-3.20;99.90;;;;;;4954071;28;20031;-82
2023/12/12 10:12:33;;;;;;;5.18;3.22;;;-3.20;99.90;;;;;;4954784;28;20031;-81
2023/12/12 10:14:59;;;;;;;8.38;4.75;;;-3.30;99.90;;;;;;4953736;28;20114;-79
2023/12/12 10:17:26;;;;;;;9.27;4.65;;;-3.30;99.90;;;;;;4956402;28;20059;-81
2023/12/12 10:20:04;;;;;;;;;;;-3.30;99.90;;;;;;4941599;28;20034;-80
2023/12/12 10:22:31;;;;;;;6.28;2.83;;;-3.30;99.90;;;;;;4960631;28;20360;-79
2023/12/12 10:25:11;;;;;;;7.63;2.73;;;-3.30;99.90;;;;;;4937035;28;20486;-80
2023/12/12 10:27:43;;;;;;;5.57;3.15;;;-3.40;99.90;;;;;;4954840;29;20280;-81
2023/12/12 10:30:12;;;;;;;6.38;3.30;;;-3.40;99.90;;;;;;4955665;28;20050;-82
2023/12/12 10:32:38;;;;;;;12.23;4.85;;;-3.40;99.90;;;;;;4954196;28;20020;-79
2023/12/12 10:35:05;;;;;;;11.02;3.20;;;-3.40;99.90;;;;;;4956106;28;20031;-82
2023/12/12 10:37:30;;;;;;;12.07;3.95;;;-3.50;99.90;;;;;;4955651;28;20369;-82
2023/12/12 10:40:11;;;;;;;6.55;4.07;;;-3.50;99.90;;;;;;4958730;28;20038;-82
2023/12/12 10:42:40;;;;;;;13.18;4.75;;;-3.50;99.90;;;;;;4954423;28;20028;-83
2023/12/12 10:45:09;;;;;;;5.63;3.60;;;-3.50;99.90;;;;;;4956902;28;20023;-82
2023/12/12 10:47:40;;;;;;;6.82;3.08;;;-3.50;99.90;;;;;;4944806;29;20027;-84
2023/12/12 10:50:09;;;;;;;5.00;2.97;;;-3.50;99.90;;;;;;4954116;29;20055;-84
2023/12/12 10:52:36;;;;;;;16.52;4.93;;;-3.50;99.90;;;;;;4955685;28;20433;-82
2023/12/12 10:55:02;;;;;;;6.10;2.85;;;-3.50;99.90;;;;;;4965800;28;20101;-83
2023/12/12 10:57:30;;;;;;;10.93;4.72;;;-3.50;99.90;;;;;;4956637;28;20015;-81
2023/12/12 10:59:57;;;;;;;6.63;3.03;;;-3.50;99.90;;;;;;4954590;29;20469;-81
2023/12/12 11:02:23;;;;;;;9.50;3.13;;;-3.50;99.90;;;;;;4961157;28;20038;-82
2023/12/12 11:04:50;;;;;;;6.30;3.65;;;-3.60;99.90;;;;;;4953739;29;20277;-82
2023/12/12 11:07:16;;;;;;;;;;;-3.60;99.90;;;;;;4937209;29;20023;-82
2023/12/12 11:09:43;;;;;;;9.15;3.72;;;-3.60;99.90;;;;;;4959602;28;19921;-84
2023/12/12 11:12:11;;;;;;;9.50;3.70;;;-3.70;99.90;;;;;;4954634;28;20047;-83
2023/12/12 11:14:38;;;;;;;8.50;3.40;;;-3.70;99.90;;;;;;4954563;29;20273;-84
2023/12/12 11:17:09;;;;;;;10.93;2.92;;;-3.70;99.90;;;;;;4947918;29;20449;-84
2023/12/12 11:19:36;;;;;;;8.52;4.45;;;-3.70;99.90;;;;;;4955728;29;20083;-84
2023/12/12 11:22:03;;;;;;;12.40;4.70;;;-3.80;99.90;;;;;;4954808;29;20023;-82
2023/12/12 11:25:10;;;;;;;9.63;3.85;;;-3.80;99.90;;;;;;4963254;28;20026;-82
2023/12/12 11:27:39;;;;;;;6.07;3.15;;;-3.90;99.90;;;;;;4956535;28;20019;-81
2023/12/12 11:30:07;;;;;;;11.88;4.85;;;-3.90;99.90;;;;;;4964583;29;20071;-81
2023/12/12 11:32:33;;;;;;;;;;;-3.90;99.90;;;;;;4960903;29;20023;-82
2023/12/12 11:34:59;;;;;;;8.32;4.05;;;-4.00;99.90;;;;;;4942829;29;19917;-82
2023/12/12 11:37:41;;;;;;;6.72;2.95;;;-4.00;99.90;;;;;;4960121;29;20373;-83
2023/12/12 11:40:09;;;;;;;8.27;4.35;;;-4.10;99.90;;;;;;4967107;28;20105;-84
2023/12/12 11:42:35;;;;;;;9.63;3.72;;;-4.10;99.90;;;;;;4971568;28;20019;-83
2023/12/12 11:45:02;;;;;;;6.68;3.20;;;-4.10;99.90;;;;;;4965105;28;20019;-82
2023/12/12 11:47:30;;;;;;;16.23;7.03;;;-4.20;99.90;;;;;;4961697;28;20023;-83
2023/12/12 11:50:16;;;;;;;6.43;4.07;;;-4.20;99.90;;;;;;4947623;28;20054;-83
2023/12/12 11:52:43;;;;;;;9.43;3.75;;;-4.20;99.90;;;;;;4952899;28;20082;-82
2023/12/12 11:55:31;;;;;;;13.20;4.28;;;-4.20;99.90;;;;;;4954883;28;20059;-83
2023/12/12 11:58:01;;;;;;;10.23;4.40;;;-4.20;99.90;;;;;;4938291;29;20032;-86
2023/12/12 12:00:32;;;;;;;4.47;2.90;;;-4.20;99.90;;;;;;4953774;28;20054;-84
2023/12/12 12:02:58;;;;;;;8.73;3.80;;;-4.20;99.90;;;;;;4957681;28;20046;-84
2023/12/12 12:05:24;;;;;;;12.23;3.58;;;-4.20;99.90;;;;;;4957511;29;20035;-85
2023/12/12 12:07:50;;;;;;;9.10;3.55;;;-4.20;99.90;;;;;;4958249;28;20396;-87
2023/12/12 12:10:18;;;;;;;15.20;3.88;;;-4.20;99.90;;;;;;4966536;28;20099;-89
2023/12/12 12:12:55;;;;;;;15.25;4.07;;;-4.20;99.90;;;;;;4961712;28;20019;-83
2023/12/12 12:15:21;;;;;;;7.80;3.63;;;-4.20;99.90;;;;;;4939894;29;20117;-84
2023/12/12 12:17:47;;;;;;;6.72;3.17;;;-4.20;99.90;;;;;;4956523;28;20038;-80
2023/12/12 12:20:13;;;;;;;8.82;3.50;;;-4.20;99.90;;;;;;4957035;28;20440;-83
2023/12/12 12:22:39;;;;;;;8.43;3.95;;;-4.20;99.90;;;;;;4956662;28;20038;-83
2023/12/12 12:25:07;;;;;;;12.15;3.22;;;-4.20;99.90;;;;;;4943724;28;20038;-82
2023/12/12 12:27:34;;;;;;;;;;;-4.20;99.90;;;;;;4962854;29;20408;-81
2023/12/12 12:30:01;;;;;;;;;;;-4.20;99.90;;;;;;4939507;29;19925;-82
2023/12/12 12:32:26;;;;;;;28.52;4.53;;;-4.20;99.90;;;;;;4936148;29;19907;-83
2023/12/12 12:35:08;;;;;;;12.55;3.47;;;-4.20;99.90;;;;;;4950212;28;20366;-83
2023/12/12 12:37:36;;;;;;;9.90;3.90;;;-4.20;99.90;;;;;;4955759;28;20505;-80
2023/12/12 12:40:06;;;;;;;7.85;3.88;;;-4.20;99.90;;;;;;4938219;29;20119;-85
2023/12/12 12:42:35;;;;;;;10.45;4.13;;;-4.20;99.90;;;;;;4954728;28;20396;-83
2023/12/12 12:45:10;;;;;;;14.80;4.10;;;-4.20;99.90;;;;;;4956012;28;20020;-79
2023/12/12 12:47:36;;;;;;;9.80;4.28;;;-4.20;99.90;;;;;;4943937;29;20027;-83